Hartford, CT

2:12 PM EDT on September 21, 2014 (GMT -0400)
KCTEASTH16 | Change Station
CLOSE
Current Station
Personal Weather Station
Location: East Hartford, CT
Elevation: 56 ft
Nearby Weather Stations

Elev 56 ft 41.79 °N, 72.63 °W | Updated 12 minutes ago

Overcast
Overcast
79.0 °F
Feels Like 81 °F
N
1.7
Wind Variable Wind from NNE

Today
High -- | Low -- °F
--% Chance of Precip.
Yesterday
High -- | Low -- °F
Precip. -- in
6:37 AM 6:49 PM
Waning Crescent, 6% visible
Pressure 29.74 in
Visibility 10.0 miles
Clouds Scattered Clouds 2100 ft
Scattered Clouds 2700 ft
Heat Index 81 °F
Dew Point 68 °F
Humidity 68%
Rainfall 0.49 in
Snow Depth Not available.
UV 5 out of 12
Pollen .70 out of 12
Ozone Good
Flu Activity Not available.
SPECI KHFD 211800Z 15009G17KT 10SM SCT021 SCT027 25/21 A2974 RMK AO2 T02500206

More Conditions Fewer Conditions

Pressure 29.74 in
Visibility 10.0 miles
Clouds Scattered Clouds 2100 ft
Scattered Clouds 2700 ft
Heat Index 81 °F
Dew Point 68 °F
Humidity 68%
Rainfall 0.49 in
Snow Depth Not available.
UV 5 out of 12
Pollen .70 out of 12
Ozone Good
Flu Activity Not available.
SPECI KHFD 211800Z 15009G17KT 10SM SCT021 SCT027 25/21 A2974 RMK AO2 T02500206

More Conditions Fewer Conditions

10-Day Weather Forecast

Almanac

Astronomy

Sep. 21, 2014 Rise Set
Actual Time 6:37 AM EDT 6:49 PM EDT
Civil Twilight 6:09 AM EDT 7:17 PM EDT
Nautical Twilight 5:36 AM EDT 7:49 PM EDT
Astronomical Twilight 5:03 AM EDT 8:23 PM EDT
Moon 4:06 AM EDT 5:25 PM EDT
Length of Visible Light 13h 08m
Length of Day
12h 12m
Tomorrow will be 2m 46s shorter.
Waning Crescent, 6% of the Moon is Illuminated
Today
Waning Crescent
Sep 24
New
Oct 1
First Quarter
Oct 8
Full
Oct 15
Last Quarter

Today's Extremes

State Highs State Lows

Community

WunderPhotos

Upload Photos

1,755,213 photos uploaded!

WunderBlogs® & News

Nearby

Air Quality

  Air Quality AQ Index Pollutant
Yesterday Good
OZONE
Current Good
OZONE
Sunday Good
OZONE
Sunday Good
PM2.5
Monday Good
PM2.5
Monday Good
OZONE

Snow Depth

Station Depth Elevation
No new snow has been reported.

Earthquake Activity

City Distance Mag. Time & Date
No recent earthquake activity has been reported nearby.
Minimum magnitude displayed is 2.5.

Coastal Water Temperatures

Place Temperature
New London, CT 68.0 °F
Newport, RI 68.0 °F
Quonset Point, RI 68.0 °F
Conimicut Light, RI 68.0 °F
Providence, RI 68.0 °F

Nearby Weather Stations